Weather History for KMFV - October, 2013

Change the Weather History Date:

Wednesday, October 2, 2013

  Actual Average (KWAL) Record (KWAL)
Temperature  
Mean Temperature 73 °F 64 °F  
Max Temperature 84 °F 73 °F 87 °F (2002)
Min Temperature 62 °F 55 °F 41 °F (1997)
Degree Days  
Heating Degree Days 0    
Month to date heating degree days  
Since 1 July heating degree days  
Cooling Degree Days 8    
Month to date cooling degree days  
Year to date cooling degree days  
Growing Degree Days 23 (Base 50)    
Moisture  
Dew Point 58 °F    
Average Humidity 63    
Maximum Humidity 88    
Minimum Humidity 33    
Precipitation  
Precipitation 0.00 in 0.10 in 0.19 in (2012)
Month to date precipitation 0.20  
Year to date precipitation 31.57  
Sea Level Pressure  
Sea Level Pressure 30.06 in    
Wind  
Wind Speed 4 mph (West)    
Max Wind Speed 9 mph    
Max Gust Speed -    
Visibility 9 miles    
Events      
T = Trace of Precipitation, MM = Missing Value Source: NWS Daily Summary

Daily Weather History Graph

Daily Weather History Graph

Search for Another Location

Airport or City:

Trip Planner

Search our weather history database for the weather conditions in past years. The results will help you decide how hot, cold, wet, or windy it might be!

Date:

Astronomy

Oct. 02, 2013 Rise Set
Actual Time 6:59 AM EDT 6:44 PM EDT
Civil Twilight 6:33 AM EDT 7:10 PM EDT
Nautical Twilight 6:03 AM EDT 7:40 PM EDT
Astronomical Twilight 5:32 AM EDT 8:11 PM EDT
Moon 4:32 AM EDT (10/2) 5:17 PM EDT (10/2)
Length of Visible Light 12h 36m
Length of Day
11h 44m
Waning Crescent, 6% of the Moon is Illuminated
Oct 2
Waning Crescent
Oct 4
New
Oct 11
First Quarter
Oct 18
Full
Oct 26
Last Quarter

Hourly Weather History & Observations

Time (EDT) Temp. Heat Index Dew Point Humidity Pressure Visibility Wind Dir Wind Speed Gust Speed Precip Events Conditions
12:15 AM 64.4 °F - 57.2 °F 77% 30.04 in 10.0 mi SW 4.6 mph - N/A   Clear
12:35 AM 64.4 °F - 59.0 °F 83% 30.04 in 10.0 mi SW 3.5 mph - N/A   Clear
12:55 AM 64.4 °F - 59.0 °F 83% 30.04 in 10.0 mi SW 4.6 mph - N/A   Clear
1:15 AM 64.4 °F - 59.0 °F 83% 30.04 in 10.0 mi SW 4.6 mph - N/A   Clear
1:35 AM 66.2 °F - 60.8 °F 83% 30.04 in 10.0 mi SW 4.6 mph - N/A   Clear
2:15 AM 66.2 °F - 60.8 °F 83% 30.04 in 10.0 mi SW 4.6 mph - N/A   Scattered Clouds
2:35 AM 66.2 °F - 60.8 °F 83% 30.04 in 10.0 mi SW 6.9 mph - N/A   Mostly Cloudy
2:55 AM 68.0 °F - 60.8 °F 78% 30.04 in 10.0 mi SW 5.8 mph - N/A   Scattered Clouds
3:15 AM 68.0 °F - 60.8 °F 78% 30.04 in 10.0 mi WSW 4.6 mph - N/A   Clear
3:35 AM 68.0 °F - 60.8 °F 78% 30.04 in 10.0 mi WSW 4.6 mph - N/A   Clear
3:56 AM 66.2 °F - 60.8 °F 83% 30.03 in 10.0 mi WSW 4.6 mph - N/A   Scattered Clouds
4:15 AM 68.0 °F - 60.8 °F 78% 30.03 in 10.0 mi WSW 4.6 mph - N/A   Scattered Clouds
4:35 AM 64.4 °F - 59.0 °F 83% 30.04 in 2.0 mi West 4.6 mph - N/A   Haze
4:55 AM 64.4 °F - 59.0 °F 83% 30.04 in 2.5 mi West 3.5 mph - N/A   Haze
5:15 AM 62.6 °F - 57.2 °F 82% 30.04 in 0.2 mi West 4.6 mph - N/A   Haze
5:35 AM 64.4 °F - 59.0 °F 83% 30.05 in 4.0 mi WSW 5.8 mph - N/A   Haze
5:55 AM 64.4 °F - 60.8 °F 88% 30.05 in 4.0 mi WSW 3.5 mph - N/A   Haze
6:15 AM 64.4 °F - 60.8 °F 88% 30.05 in 0.8 mi West 3.5 mph - N/A   Haze
6:35 AM 64.4 °F - 59.0 °F 83% 30.05 in 0.2 mi West 3.5 mph - N/A   Haze
6:55 AM 64.4 °F - 59.0 °F 83% 30.05 in 0.5 mi Calm Calm - N/A   Haze
7:15 AM 64.4 °F - 59.0 °F 83% 30.06 in 0.2 mi West 3.5 mph - N/A   Haze
7:35 AM 62.6 °F - 57.2 °F 82% 30.06 in 1.5 mi West 3.5 mph - N/A   Haze
7:55 AM 64.4 °F - 59.0 °F 83% 30.07 in 0.2 mi Calm Calm - N/A   Haze
8:15 AM 68.0 °F - 62.6 °F 83% 30.07 in 5.0 mi Calm Calm - N/A   Haze
8:35 AM 69.8 °F - 64.4 °F 83% 30.08 in 10.0 mi Calm Calm - N/A   Clear
8:55 AM 73.4 °F - 64.4 °F 73% 30.08 in 10.0 mi Calm Calm - N/A   Clear
9:15 AM 75.2 °F - 62.6 °F 65% 30.09 in 10.0 mi WNW 4.6 mph - N/A   Clear
9:35 AM 78.8 °F - 62.6 °F 57% 30.09 in 10.0 mi NW 3.5 mph - N/A   Clear
9:55 AM 78.8 °F - 60.8 °F 54% 30.09 in 10.0 mi NW 4.6 mph - N/A   Clear
10:15 AM 80.6 °F 81.1 °F 59.0 °F 48% 30.09 in 10.0 mi NNW 3.5 mph - N/A   Clear
10:35 AM 82.4 °F 82.0 °F 57.2 °F 42% 30.10 in 10.0 mi NNW 9.2 mph - N/A   Clear
10:55 AM 82.4 °F 82.0 °F 57.2 °F 42% 30.10 in 10.0 mi NNW 5.8 mph - N/A   Clear
11:15 AM 82.4 °F 82.0 °F 57.2 °F 42% 30.09 in 10.0 mi NNW 8.1 mph - N/A   Clear
11:35 AM 82.4 °F 82.0 °F 57.2 °F 42% 30.09 in 10.0 mi NNW 6.9 mph - N/A   Clear
11:56 AM 82.4 °F 81.7 °F 55.4 °F 39% 30.08 in 10.0 mi NNW 5.8 mph - N/A   Clear
12:15 PM 82.4 °F 81.7 °F 55.4 °F 39% 30.08 in 10.0 mi North 6.9 mph - N/A   Clear
12:35 PM 82.4 °F 82.0 °F 57.2 °F 42% 30.08 in 10.0 mi WNW 9.2 mph - N/A   Clear
12:55 PM 82.4 °F 82.0 °F 57.2 °F 42% 30.07 in 10.0 mi WNW 6.9 mph - N/A   Clear
1:15 PM 84.2 °F 83.0 °F 55.4 °F 37% 30.07 in 10.0 mi NNW 5.8 mph - N/A   Clear
1:35 PM 84.2 °F 83.0 °F 55.4 °F 37% 30.06 in 10.0 mi NW 6.9 mph - N/A   Clear
1:55 PM 84.2 °F 82.8 °F 53.6 °F 35% 30.05 in 10.0 mi North 6.9 mph - N/A   Clear
2:16 PM 84.2 °F 82.8 °F 53.6 °F 35% 30.05 in 10.0 mi North 3.5 mph - N/A   Clear
2:35 PM 84.2 °F 82.8 °F 53.6 °F 35% 30.04 in 10.0 mi NW 5.8 mph - N/A   Clear
2:55 PM 84.2 °F 82.8 °F 53.6 °F 35% 30.04 in 10.0 mi NW 3.5 mph - N/A   Clear
3:15 PM 84.2 °F - 51.8 °F 33% 30.04 in 10.0 mi NW 5.8 mph - N/A   Clear
3:35 PM 84.2 °F - 51.8 °F 33% 30.03 in 10.0 mi North 3.5 mph - N/A   Clear
3:55 PM 84.2 °F - 51.8 °F 33% 30.03 in 10.0 mi NW 4.6 mph - N/A   Clear
4:15 PM 84.2 °F - 51.8 °F 33% 30.03 in 10.0 mi WNW 4.6 mph - N/A   Clear
4:35 PM 84.2 °F - 51.8 °F 33% 30.03 in 10.0 mi NW 3.5 mph - N/A   Clear
4:55 PM 84.2 °F - 51.8 °F 33% 30.03 in 10.0 mi NW 3.5 mph - N/A   Clear
5:15 PM 84.2 °F 82.8 °F 53.6 °F 35% 30.03 in 10.0 mi West 4.6 mph - N/A   Clear
5:35 PM 82.4 °F - 51.8 °F 35% 30.03 in 10.0 mi Calm Calm - N/A   Clear
5:55 PM 82.4 °F 81.4 °F 53.6 °F 37% 30.04 in 10.0 mi Calm Calm - N/A   Clear
6:15 PM 80.6 °F 80.5 °F 55.4 °F 42% 30.03 in 10.0 mi Calm Calm - N/A   Clear
6:35 PM 77.0 °F - 60.8 °F 57% 30.04 in 10.0 mi Calm Calm - N/A   Clear
6:55 PM 75.2 °F - 60.8 °F 61% 30.05 in 10.0 mi Calm Calm - N/A   Clear
7:35 PM 71.6 °F - 60.8 °F 69% 30.05 in 10.0 mi SW 3.5 mph - N/A   Clear
7:55 PM 69.8 °F - 60.8 °F 73% 30.06 in 10.0 mi Calm Calm - N/A   Clear
8:15 PM 69.8 °F - 60.8 °F 73% 30.06 in 10.0 mi SSW 3.5 mph - N/A   Clear
8:35 PM 69.8 °F - 60.8 °F 73% 30.07 in 10.0 mi South 3.5 mph - N/A   Clear
8:55 PM 68.0 °F - 60.8 °F 78% 30.07 in 10.0 mi Calm Calm - N/A   Clear
9:15 PM 68.0 °F - 60.8 °F 78% 30.07 in 10.0 mi Calm Calm - N/A   Clear
9:35 PM 66.2 °F - 60.8 °F 83% 30.08 in 10.0 mi South 4.6 mph - N/A   Clear
9:55 PM 66.2 °F - 60.8 °F 83% 30.08 in 10.0 mi South 4.6 mph - N/A   Clear
10:15 PM 66.2 °F - 60.8 °F 83% 30.08 in 10.0 mi SSW 3.5 mph - N/A   Clear
10:36 PM 69.8 °F - 62.6 °F 78% 30.09 in 10.0 mi SSW 3.5 mph - N/A   Clear
10:56 PM 68.0 °F - 62.6 °F 83% 30.09 in 10.0 mi SSW 4.6 mph - N/A   Clear
11:15 PM 69.8 °F - 60.8 °F 73% 30.09 in 10.0 mi SSW 4.6 mph - N/A   Clear
11:35 PM 69.8 °F - 60.8 °F 73% 30.09 in 10.0 mi SSW 4.6 mph - N/A   Clear
11:55 PM 69.8 °F - 60.8 °F 73% 30.09 in 10.0 mi SSW 3.5 mph - N/A   Clear